Aredale, Iowa
Current Conditions -  °F | °C
As of 5:55 PM on Saturday 25 Oct 2014 (Local Time) from KCCY Reporting Station
Clear Clear  
Wind Chill: 61°   Ceiling: Unl
Heat Index: 61°   Visibility: 10mi
Dew Point: 30°   Wind: 9mph
Humidity: 31%   Direction: 320°NW
Pressure: 30.06"   Gusts: NA
Location:  42.83°N, 93.01°W
Report Text: KCCY 252255Z AUTO 32008KT 10SM CLR 16/M01 A3006 RMK AO2
Loading
Personal Weather Stations






























Interactive Weather Map New forecast layout! Learn more

10-Day Weather Forecast

Advertisements
Track Severe Weather on mobile